sensor_id;sensor_type;location;lat;lon;timestamp;P1;durP1;ratioP1;P2;durP2;ratioP2
49578;SDS011;35483;50.828;3.228;2024-01-07T00:00:41;4.32;;;3.88;;
49578;SDS011;35483;50.828;3.228;2024-01-07T00:03:07;4.95;;;4.10;;
49578;SDS011;35483;50.828;3.228;2024-01-07T00:05:33;5.70;;;4.40;;
49578;SDS011;35483;50.828;3.228;2024-01-07T00:08:02;4.28;;;3.72;;
49578;SDS011;35483;50.828;3.228;2024-01-07T00:10:28;4.65;;;3.67;;
49578;SDS011;35483;50.828;3.228;2024-01-07T00:12:54;4.30;;;3.75;;
49578;SDS011;35483;50.828;3.228;2024-01-07T00:15:20;4.38;;;3.90;;
49578;SDS011;35483;50.828;3.228;2024-01-07T00:17:45;3.80;;;3.47;;
49578;SDS011;35483;50.828;3.228;2024-01-07T00:20:11;4.97;;;4.30;;
49578;SDS011;35483;50.828;3.228;2024-01-07T00:22:37;4.25;;;3.72;;
49578;SDS011;35483;50.828;3.228;2024-01-07T00:25:03;4.32;;;3.92;;
49578;SDS011;35483;50.828;3.228;2024-01-07T00:27:28;4.85;;;4.32;;
49578;SDS011;35483;50.828;3.228;2024-01-07T00:29:54;6.63;;;4.70;;
49578;SDS011;35483;50.828;3.228;2024-01-07T00:32:20;4.95;;;4.07;;
49578;SDS011;35483;50.828;3.228;2024-01-07T00:34:46;5.65;;;4.22;;
49578;SDS011;35483;50.828;3.228;2024-01-07T00:37:11;3.70;;;3.40;;
49578;SDS011;35483;50.828;3.228;2024-01-07T00:39:37;6.00;;;3.67;;
49578;SDS011;35483;50.828;3.228;2024-01-07T00:42:03;5.18;;;4.07;;
49578;SDS011;35483;50.828;3.228;2024-01-07T00:44:29;6.03;;;4.75;;
49578;SDS011;35483;50.828;3.228;2024-01-07T00:46:54;4.65;;;4.25;;
49578;SDS011;35483;50.828;3.228;2024-01-07T00:49:20;5.38;;;4.28;;
49578;SDS011;35483;50.828;3.228;2024-01-07T00:51:46;4.82;;;4.43;;
49578;SDS011;35483;50.828;3.228;2024-01-07T00:54:11;6.18;;;4.80;;
49578;SDS011;35483;50.828;3.228;2024-01-07T00:56:37;5.80;;;4.32;;
49578;SDS011;35483;50.828;3.228;2024-01-07T00:59:03;4.95;;;4.45;;
49578;SDS011;35483;50.828;3.228;2024-01-07T01:01:29;5.13;;;4.65;;
49578;SDS011;35483;50.828;3.228;2024-01-07T01:03:55;5.70;;;4.30;;
49578;SDS011;35483;50.828;3.228;2024-01-07T01:06:23;4.60;;;4.20;;
49578;SDS011;35483;50.828;3.228;2024-01-07T01:08:48;4.97;;;4.53;;
49578;SDS011;35483;50.828;3.228;2024-01-07T01:11:14;4.50;;;4.10;;
49578;SDS011;35483;50.828;3.228;2024-01-07T01:13:40;6.18;;;4.28;;
49578;SDS011;35483;50.828;3.228;2024-01-07T01:16:05;5.25;;;4.65;;
49578;SDS011;35483;50.828;3.228;2024-01-07T01:18:31;5.35;;;4.35;;
49578;SDS011;35483;50.828;3.228;2024-01-07T01:20:58;5.03;;;4.53;;
49578;SDS011;35483;50.828;3.228;2024-01-07T01:23:24;6.38;;;4.75;;
49578;SDS011;35483;50.828;3.228;2024-01-07T01:25:49;7.60;;;4.90;;
49578;SDS011;35483;50.828;3.228;2024-01-07T01:28:15;6.03;;;4.85;;
49578;SDS011;35483;50.828;3.228;2024-01-07T01:30:41;6.43;;;4.88;;
49578;SDS011;35483;50.828;3.228;2024-01-07T01:33:06;5.82;;;4.80;;
49578;SDS011;35483;50.828;3.228;2024-01-07T01:35:32;7.50;;;5.32;;
49578;SDS011;35483;50.828;3.228;2024-01-07T01:37:58;7.38;;;5.07;;
49578;SDS011;35483;50.828;3.228;2024-01-07T01:40:24;7.15;;;5.60;;
49578;SDS011;35483;50.828;3.228;2024-01-07T01:42:50;6.65;;;4.93;;
49578;SDS011;35483;50.828;3.228;2024-01-07T01:45:15;5.60;;;4.90;;
49578;SDS011;35483;50.828;3.228;2024-01-07T01:47:41;6.28;;;4.78;;
49578;SDS011;35483;50.828;3.228;2024-01-07T01:50:08;6.72;;;5.00;;
49578;SDS011;35483;50.828;3.228;2024-01-07T01:52:34;5.05;;;4.55;;
49578;SDS011;35483;50.828;3.228;2024-01-07T01:55:00;7.28;;;5.43;;
49578;SDS011;35483;50.828;3.228;2024-01-07T01:57:28;5.97;;;5.03;;
49578;SDS011;35483;50.828;3.228;2024-01-07T02:00:00;5.80;;;5.10;;
49578;SDS011;35483;50.828;3.228;2024-01-07T02:02:29;5.95;;;5.30;;
49578;SDS011;35483;50.828;3.228;2024-01-07T02:04:56;6.47;;;5.45;;
49578;SDS011;35483;50.828;3.228;2024-01-07T02:07:24;5.72;;;5.13;;
49578;SDS011;35483;50.828;3.228;2024-01-07T02:09:50;4.80;;;4.35;;
49578;SDS011;35483;50.828;3.228;2024-01-07T02:12:15;5.57;;;4.97;;
49578;SDS011;35483;50.828;3.228;2024-01-07T02:14:41;6.82;;;4.97;;
49578;SDS011;35483;50.828;3.228;2024-01-07T02:17:07;6.32;;;5.72;;
49578;SDS011;35483;50.828;3.228;2024-01-07T02:19:33;5.47;;;4.32;;
49578;SDS011;35483;50.828;3.228;2024-01-07T02:21:59;5.78;;;4.65;;
49578;SDS011;35483;50.828;3.228;2024-01-07T02:24:24;4.97;;;4.22;;
49578;SDS011;35483;50.828;3.228;2024-01-07T02:26:50;6.47;;;4.93;;
49578;SDS011;35483;50.828;3.228;2024-01-07T02:29:16;5.63;;;5.13;;
49578;SDS011;35483;50.828;3.228;2024-01-07T02:31:42;5.00;;;4.60;;
49578;SDS011;35483;50.828;3.228;2024-01-07T02:34:10;6.28;;;4.65;;
49578;SDS011;35483;50.828;3.228;2024-01-07T02:36:36;5.60;;;4.70;;
49578;SDS011;35483;50.828;3.228;2024-01-07T02:39:02;5.97;;;4.72;;
49578;SDS011;35483;50.828;3.228;2024-01-07T02:41:27;5.63;;;4.85;;
49578;SDS011;35483;50.828;3.228;2024-01-07T02:43:53;4.75;;;4.35;;
49578;SDS011;35483;50.828;3.228;2024-01-07T02:46:19;4.70;;;4.25;;
49578;SDS011;35483;50.828;3.228;2024-01-07T02:48:45;5.07;;;4.50;;
49578;SDS011;35483;50.828;3.228;2024-01-07T02:51:11;5.60;;;4.32;;
49578;SDS011;35483;50.828;3.228;2024-01-07T02:53:37;6.93;;;4.43;;
49578;SDS011;35483;50.828;3.228;2024-01-07T02:56:02;6.07;;;4.47;;
49578;SDS011;35483;50.828;3.228;2024-01-07T02:58:28;4.80;;;4.20;;
49578;SDS011;35483;50.828;3.228;2024-01-07T03:00:54;6.32;;;5.30;;
49578;SDS011;35483;50.828;3.228;2024-01-07T03:03:20;6.70;;;4.10;;
49578;SDS011;35483;50.828;3.228;2024-01-07T03:05:45;4.93;;;4.22;;
49578;SDS011;35483;50.828;3.228;2024-01-07T03:08:11;6.72;;;4.93;;
49578;SDS011;35483;50.828;3.228;2024-01-07T03:10:37;6.03;;;4.82;;
49578;SDS011;35483;50.828;3.228;2024-01-07T03:13:03;5.00;;;4.13;;
49578;SDS011;35483;50.828;3.228;2024-01-07T03:15:29;4.82;;;4.32;;
49578;SDS011;35483;50.828;3.228;2024-01-07T03:17:55;4.90;;;4.15;;
49578;SDS011;35483;50.828;3.228;2024-01-07T03:20:22;6.38;;;4.95;;
49578;SDS011;35483;50.828;3.228;2024-01-07T03:22:48;11.35;;;5.35;;
49578;SDS011;35483;50.828;3.228;2024-01-07T03:25:13;4.85;;;4.22;;
49578;SDS011;35483;50.828;3.228;2024-01-07T03:27:39;4.90;;;4.40;;
49578;SDS011;35483;50.828;3.228;2024-01-07T03:30:05;6.82;;;4.43;;
49578;SDS011;35483;50.828;3.228;2024-01-07T03:32:31;6.15;;;4.82;;
49578;SDS011;35483;50.828;3.228;2024-01-07T03:34:57;5.30;;;4.55;;
49578;SDS011;35483;50.828;3.228;2024-01-07T03:37:22;6.05;;;5.03;;
49578;SDS011;35483;50.828;3.228;2024-01-07T03:39:48;5.53;;;5.03;;
49578;SDS011;35483;50.828;3.228;2024-01-07T03:42:14;5.85;;;5.00;;
49578;SDS011;35483;50.828;3.228;2024-01-07T03:44:40;6.43;;;5.65;;
49578;SDS011;35483;50.828;3.228;2024-01-07T03:47:06;7.10;;;6.25;;
49578;SDS011;35483;50.828;3.228;2024-01-07T03:49:31;6.43;;;5.82;;
49578;SDS011;35483;50.828;3.228;2024-01-07T03:51:57;6.10;;;5.50;;
49578;SDS011;35483;50.828;3.228;2024-01-07T03:54:23;6.60;;;5.90;;
49578;SDS011;35483;50.828;3.228;2024-01-07T03:56:48;7.10;;;6.40;;
49578;SDS011;35483;50.828;3.228;2024-01-07T03:59:14;7.47;;;6.28;;
49578;SDS011;35483;50.828;3.228;2024-01-07T04:01:40;7.30;;;6.60;;
49578;SDS011;35483;50.828;3.228;2024-01-07T04:04:06;7.63;;;6.57;;
49578;SDS011;35483;50.828;3.228;2024-01-07T04:06:32;8.13;;;6.90;;
49578;SDS011;35483;50.828;3.228;2024-01-07T04:08:58;7.57;;;6.88;;
49578;SDS011;35483;50.828;3.228;2024-01-07T04:11:24;7.40;;;6.70;;
49578;SDS011;35483;50.828;3.228;2024-01-07T04:13:50;8.43;;;7.47;;
49578;SDS011;35483;50.828;3.228;2024-01-07T04:16:16;8.13;;;7.32;;
49578;SDS011;35483;50.828;3.228;2024-01-07T04:18:43;8.30;;;7.30;;
49578;SDS011;35483;50.828;3.228;2024-01-07T04:21:10;7.78;;;6.95;;
49578;SDS011;35483;50.828;3.228;2024-01-07T04:23:36;8.80;;;7.90;;
49578;SDS011;35483;50.828;3.228;2024-01-07T04:26:03;7.70;;;7.00;;
49578;SDS011;35483;50.828;3.228;2024-01-07T04:28:29;8.60;;;7.68;;
49578;SDS011;35483;50.828;3.228;2024-01-07T04:30:55;9.00;;;8.10;;
49578;SDS011;35483;50.828;3.228;2024-01-07T04:33:20;9.60;;;8.23;;
49578;SDS011;35483;50.828;3.228;2024-01-07T04:35:46;8.88;;;7.93;;
49578;SDS011;35483;50.828;3.228;2024-01-07T04:38:12;9.07;;;8.18;;
49578;SDS011;35483;50.828;3.228;2024-01-07T04:40:38;8.95;;;7.93;;
49578;SDS011;35483;50.828;3.228;2024-01-07T04:43:03;8.70;;;7.90;;
49578;SDS011;35483;50.828;3.228;2024-01-07T04:45:29;9.90;;;8.90;;
49578;SDS011;35483;50.828;3.228;2024-01-07T04:47:55;9.10;;;7.88;;
49578;SDS011;35483;50.828;3.228;2024-01-07T04:50:20;9.55;;;8.55;;
49578;SDS011;35483;50.828;3.228;2024-01-07T04:52:46;9.75;;;8.82;;
49578;SDS011;35483;50.828;3.228;2024-01-07T04:55:12;10.55;;;8.60;;
49578;SDS011;35483;50.828;3.228;2024-01-07T04:57:38;9.82;;;8.82;;
49578;SDS011;35483;50.828;3.228;2024-01-07T05:00:04;10.00;;;9.00;;
49578;SDS011;35483;50.828;3.228;2024-01-07T05:02:30;9.80;;;8.88;;
49578;SDS011;35483;50.828;3.228;2024-01-07T05:04:56;10.98;;;9.95;;
49578;SDS011;35483;50.828;3.228;2024-01-07T05:07:21;10.65;;;9.55;;
49578;SDS011;35483;50.828;3.228;2024-01-07T05:09:47;9.95;;;8.82;;
49578;SDS011;35483;50.828;3.228;2024-01-07T05:12:13;12.13;;;10.73;;
49578;SDS011;35483;50.828;3.228;2024-01-07T05:14:40;12.75;;;11.05;;
49578;SDS011;35483;50.828;3.228;2024-01-07T05:17:08;10.68;;;9.60;;
49578;SDS011;35483;50.828;3.228;2024-01-07T05:19:34;13.50;;;11.00;;
49578;SDS011;35483;50.828;3.228;2024-01-07T05:22:00;11.48;;;10.38;;
49578;SDS011;35483;50.828;3.228;2024-01-07T05:24:26;10.02;;;9.02;;
49578;SDS011;35483;50.828;3.228;2024-01-07T05:26:52;10.32;;;9.32;;
49578;SDS011;35483;50.828;3.228;2024-01-07T05:29:18;10.75;;;9.73;;
49578;SDS011;35483;50.828;3.228;2024-01-07T05:31:44;9.82;;;8.82;;
49578;SDS011;35483;50.828;3.228;2024-01-07T05:34:10;10.98;;;9.88;;
49578;SDS011;35483;50.828;3.228;2024-01-07T05:36:35;10.30;;;9.27;;
49578;SDS011;35483;50.828;3.228;2024-01-07T05:39:01;11.00;;;9.90;;
49578;SDS011;35483;50.828;3.228;2024-01-07T05:41:27;12.43;;;11.23;;
49578;SDS011;35483;50.828;3.228;2024-01-07T05:43:53;12.18;;;10.80;;
49578;SDS011;35483;50.828;3.228;2024-01-07T05:46:19;13.05;;;11.75;;
49578;SDS011;35483;50.828;3.228;2024-01-07T05:48:45;12.98;;;11.60;;
49578;SDS011;35483;50.828;3.228;2024-01-07T05:51:15;13.52;;;12.25;;
49578;SDS011;35483;50.828;3.228;2024-01-07T05:53:42;13.77;;;12.38;;
49578;SDS011;35483;50.828;3.228;2024-01-07T05:56:09;13.93;;;12.52;;
49578;SDS011;35483;50.828;3.228;2024-01-07T05:58:34;13.82;;;12.52;;
49578;SDS011;35483;50.828;3.228;2024-01-07T06:01:00;15.32;;;13.73;;
49578;SDS011;35483;50.828;3.228;2024-01-07T06:03:26;14.20;;;12.80;;
49578;SDS011;35483;50.828;3.228;2024-01-07T06:05:52;15.20;;;13.63;;
49578;SDS011;35483;50.828;3.228;2024-01-07T06:08:18;14.60;;;13.05;;
49578;SDS011;35483;50.828;3.228;2024-01-07T06:10:43;14.35;;;12.95;;
49578;SDS011;35483;50.828;3.228;2024-01-07T06:13:09;14.95;;;13.43;;
49578;SDS011;35483;50.828;3.228;2024-01-07T06:15:35;13.98;;;12.57;;
49578;SDS011;35483;50.828;3.228;2024-01-07T06:18:01;14.32;;;12.77;;
49578;SDS011;35483;50.828;3.228;2024-01-07T06:20:27;16.85;;;15.05;;
49578;SDS011;35483;50.828;3.228;2024-01-07T06:22:53;15.43;;;13.82;;
49578;SDS011;35483;50.828;3.228;2024-01-07T06:25:19;15.80;;;14.20;;
49578;SDS011;35483;50.828;3.228;2024-01-07T06:27:45;15.60;;;14.00;;
49578;SDS011;35483;50.828;3.228;2024-01-07T06:30:11;16.20;;;14.50;;
49578;SDS011;35483;50.828;3.228;2024-01-07T06:32:38;15.52;;;13.93;;
49578;SDS011;35483;50.828;3.228;2024-01-07T06:35:04;17.88;;;16.08;;
49578;SDS011;35483;50.828;3.228;2024-01-07T06:37:30;18.00;;;16.17;;
49578;SDS011;35483;50.828;3.228;2024-01-07T06:39:56;16.88;;;15.15;;
49578;SDS011;35483;50.828;3.228;2024-01-07T06:42:23;17.42;;;15.73;;
49578;SDS011;35483;50.828;3.228;2024-01-07T06:44:49;17.70;;;15.80;;
49578;SDS011;35483;50.828;3.228;2024-01-07T06:47:15;17.25;;;15.45;;
49578;SDS011;35483;50.828;3.228;2024-01-07T06:49:41;18.73;;;16.73;;
49578;SDS011;35483;50.828;3.228;2024-01-07T06:52:06;19.00;;;17.08;;
49578;SDS011;35483;50.828;3.228;2024-01-07T06:54:32;18.60;;;16.60;;
49578;SDS011;35483;50.828;3.228;2024-01-07T06:56:58;20.35;;;18.33;;
49578;SDS011;35483;50.828;3.228;2024-01-07T06:59:24;19.38;;;17.33;;
49578;SDS011;35483;50.828;3.228;2024-01-07T07:01:50;19.55;;;17.52;;
49578;SDS011;35483;50.828;3.228;2024-01-07T07:04:15;19.55;;;17.45;;
49578;SDS011;35483;50.828;3.228;2024-01-07T07:06:41;20.10;;;17.92;;
49578;SDS011;35483;50.828;3.228;2024-01-07T07:09:07;19.33;;;17.30;;
49578;SDS011;35483;50.828;3.228;2024-01-07T07:11:33;19.70;;;17.60;;
49578;SDS011;35483;50.828;3.228;2024-01-07T07:13:58;18.23;;;16.33;;
49578;SDS011;35483;50.828;3.228;2024-01-07T07:16:25;18.42;;;16.52;;
49578;SDS011;35483;50.828;3.228;2024-01-07T07:18:51;19.52;;;17.38;;
49578;SDS011;35483;50.828;3.228;2024-01-07T07:21:17;19.10;;;17.10;;
49578;SDS011;35483;50.828;3.228;2024-01-07T07:23:43;20.05;;;17.77;;
49578;SDS011;35483;50.828;3.228;2024-01-07T07:26:08;19.58;;;17.60;;
49578;SDS011;35483;50.828;3.228;2024-01-07T07:28:34;19.13;;;17.10;;
49578;SDS011;35483;50.828;3.228;2024-01-07T07:31:00;18.48;;;16.02;;
49578;SDS011;35483;50.828;3.228;2024-01-07T07:33:26;20.05;;;16.65;;
49578;SDS011;35483;50.828;3.228;2024-01-07T07:35:51;19.10;;;16.98;;
49578;SDS011;35483;50.828;3.228;2024-01-07T07:38:17;19.17;;;16.67;;
49578;SDS011;35483;50.828;3.228;2024-01-07T07:40:43;18.58;;;16.60;;
49578;SDS011;35483;50.828;3.228;2024-01-07T07:43:10;18.88;;;16.88;;
49578;SDS011;35483;50.828;3.228;2024-01-07T07:45:35;17.83;;;15.80;;
49578;SDS011;35483;50.828;3.228;2024-01-07T07:48:01;18.00;;;16.05;;
49578;SDS011;35483;50.828;3.228;2024-01-07T07:50:27;18.63;;;16.42;;
49578;SDS011;35483;50.828;3.228;2024-01-07T07:52:53;19.05;;;16.98;;
49578;SDS011;35483;50.828;3.228;2024-01-07T07:55:19;18.80;;;16.80;;
49578;SDS011;35483;50.828;3.228;2024-01-07T07:57:44;17.75;;;15.27;;
49578;SDS011;35483;50.828;3.228;2024-01-07T08:00:11;18.52;;;16.63;;
49578;SDS011;35483;50.828;3.228;2024-01-07T08:02:37;17.88;;;15.85;;
49578;SDS011;35483;50.828;3.228;2024-01-07T08:05:04;18.40;;;16.40;;
49578;SDS011;35483;50.828;3.228;2024-01-07T08:07:31;17.90;;;16.05;;
49578;SDS011;35483;50.828;3.228;2024-01-07T08:09:57;16.35;;;14.65;;
49578;SDS011;35483;50.828;3.228;2024-01-07T08:12:23;17.05;;;14.48;;
49578;SDS011;35483;50.828;3.228;2024-01-07T08:14:49;15.68;;;13.98;;
49578;SDS011;35483;50.828;3.228;2024-01-07T08:17:15;16.30;;;14.27;;
49578;SDS011;35483;50.828;3.228;2024-01-07T08:19:41;16.13;;;14.43;;
49578;SDS011;35483;50.828;3.228;2024-01-07T08:22:07;16.15;;;14.40;;
49578;SDS011;35483;50.828;3.228;2024-01-07T08:24:34;14.88;;;13.18;;
49578;SDS011;35483;50.828;3.228;2024-01-07T08:27:01;15.82;;;14.23;;
49578;SDS011;35483;50.828;3.228;2024-01-07T08:29:28;15.05;;;13.32;;
49578;SDS011;35483;50.828;3.228;2024-01-07T08:31:54;14.75;;;13.07;;
49578;SDS011;35483;50.828;3.228;2024-01-07T08:34:20;14.63;;;12.95;;
49578;SDS011;35483;50.828;3.228;2024-01-07T08:36:46;14.38;;;12.85;;
49578;SDS011;35483;50.828;3.228;2024-01-07T08:39:14;14.90;;;12.95;;
49578;SDS011;35483;50.828;3.228;2024-01-07T08:41:39;14.32;;;12.82;;
49578;SDS011;35483;50.828;3.228;2024-01-07T08:44:05;13.90;;;11.85;;
49578;SDS011;35483;50.828;3.228;2024-01-07T08:46:33;15.40;;;12.98;;
49578;SDS011;35483;50.828;3.228;2024-01-07T08:48:59;14.82;;;13.10;;
49578;SDS011;35483;50.828;3.228;2024-01-07T08:51:25;13.35;;;11.65;;
49578;SDS011;35483;50.828;3.228;2024-01-07T08:53:51;14.52;;;12.52;;
49578;SDS011;35483;50.828;3.228;2024-01-07T08:56:16;13.93;;;12.43;;
49578;SDS011;35483;50.828;3.228;2024-01-07T08:58:43;14.27;;;12.82;;
49578;SDS011;35483;50.828;3.228;2024-01-07T09:01:08;14.40;;;12.90;;
49578;SDS011;35483;50.828;3.228;2024-01-07T09:03:34;15.25;;;13.63;;
49578;SDS011;35483;50.828;3.228;2024-01-07T09:06:00;15.73;;;13.63;;
49578;SDS011;35483;50.828;3.228;2024-01-07T09:08:26;15.73;;;14.05;;
49578;SDS011;35483;50.828;3.228;2024-01-07T09:10:51;16.90;;;14.43;;
49578;SDS011;35483;50.828;3.228;2024-01-07T09:13:17;16.75;;;14.85;;
49578;SDS011;35483;50.828;3.228;2024-01-07T09:15:43;17.83;;;14.45;;
49578;SDS011;35483;50.828;3.228;2024-01-07T09:18:09;17.25;;;12.90;;
49578;SDS011;35483;50.828;3.228;2024-01-07T09:20:34;16.08;;;14.38;;
49578;SDS011;35483;50.828;3.228;2024-01-07T09:23:00;16.25;;;14.00;;
49578;SDS011;35483;50.828;3.228;2024-01-07T09:25:27;16.50;;;13.80;;
49578;SDS011;35483;50.828;3.228;2024-01-07T09:27:53;19.15;;;15.07;;
49578;SDS011;35483;50.828;3.228;2024-01-07T09:30:20;16.75;;;13.95;;
49578;SDS011;35483;50.828;3.228;2024-01-07T09:32:50;17.17;;;14.85;;
49578;SDS011;35483;50.828;3.228;2024-01-07T09:35:20;18.13;;;15.30;;
49578;SDS011;35483;50.828;3.228;2024-01-07T09:37:46;15.80;;;14.00;;
49578;SDS011;35483;50.828;3.228;2024-01-07T09:40:12;18.30;;;15.02;;
49578;SDS011;35483;50.828;3.228;2024-01-07T09:42:42;17.48;;;14.52;;
49578;SDS011;35483;50.828;3.228;2024-01-07T09:45:10;14.18;;;12.68;;
49578;SDS011;35483;50.828;3.228;2024-01-07T09:47:40;15.65;;;13.63;;
49578;SDS011;35483;50.828;3.228;2024-01-07T09:50:09;16.27;;;13.40;;
49578;SDS011;35483;50.828;3.228;2024-01-07T09:52:36;18.52;;;15.02;;
49578;SDS011;35483;50.828;3.228;2024-01-07T09:55:11;17.67;;;14.20;;
49578;SDS011;35483;50.828;3.228;2024-01-07T09:57:43;18.38;;;14.73;;
49578;SDS011;35483;50.828;3.228;2024-01-07T10:00:11;18.27;;;14.93;;
49578;SDS011;35483;50.828;3.228;2024-01-07T10:02:38;18.73;;;14.98;;
49578;SDS011;35483;50.828;3.228;2024-01-07T10:05:09;18.58;;;15.82;;
49578;SDS011;35483;50.828;3.228;2024-01-07T10:07:36;20.60;;;16.27;;
49578;SDS011;35483;50.828;3.228;2024-01-07T10:10:13;20.20;;;16.52;;
49578;SDS011;35483;50.828;3.228;2024-01-07T10:12:46;21.63;;;16.90;;
49578;SDS011;35483;50.828;3.228;2024-01-07T10:15:12;19.83;;;14.45;;
49578;SDS011;35483;50.828;3.228;2024-01-07T10:17:39;22.58;;;17.83;;
49578;SDS011;35483;50.828;3.228;2024-01-07T10:20:08;20.08;;;17.00;;
49578;SDS011;35483;50.828;3.228;2024-01-07T10:22:39;17.95;;;15.15;;
49578;SDS011;35483;50.828;3.228;2024-01-07T10:25:05;19.02;;;15.43;;
49578;SDS011;35483;50.828;3.228;2024-01-07T10:27:35;18.27;;;14.82;;
49578;SDS011;35483;50.828;3.228;2024-01-07T10:30:04;17.17;;;14.48;;
49578;SDS011;35483;50.828;3.228;2024-01-07T10:32:31;20.58;;;16.50;;
49578;SDS011;35483;50.828;3.228;2024-01-07T10:35:01;18.55;;;16.02;;
49578;SDS011;35483;50.828;3.228;2024-01-07T10:37:28;21.02;;;16.02;;
49578;SDS011;35483;50.828;3.228;2024-01-07T10:39:58;19.80;;;15.02;;
49578;SDS011;35483;50.828;3.228;2024-01-07T10:42:30;19.60;;;16.00;;
49578;SDS011;35483;50.828;3.228;2024-01-07T10:44:57;19.50;;;15.93;;
49578;SDS011;35483;50.828;3.228;2024-01-07T10:47:25;19.35;;;15.93;;
49578;SDS011;35483;50.828;3.228;2024-01-07T10:49:56;18.42;;;15.73;;
49578;SDS011;35483;50.828;3.228;2024-01-07T10:52:24;18.48;;;15.45;;
49578;SDS011;35483;50.828;3.228;2024-01-07T10:54:52;20.02;;;16.77;;
49578;SDS011;35483;50.828;3.228;2024-01-07T10:57:26;18.73;;;16.67;;
49578;SDS011;35483;50.828;3.228;2024-01-07T11:00:07;20.58;;;17.58;;
49578;SDS011;35483;50.828;3.228;2024-01-07T11:02:45;19.17;;;16.48;;
49578;SDS011;35483;50.828;3.228;2024-01-07T11:05:25;20.00;;;16.65;;
49578;SDS011;35483;50.828;3.228;2024-01-07T11:07:57;21.75;;;17.90;;
49578;SDS011;35483;50.828;3.228;2024-01-07T11:10:50;19.67;;;16.65;;
49578;SDS011;35483;50.828;3.228;2024-01-07T11:13:33;19.25;;;16.25;;
49578;SDS011;35483;50.828;3.228;2024-01-07T11:16:01;21.65;;;17.58;;
49578;SDS011;35483;50.828;3.228;2024-01-07T11:18:27;21.52;;;18.63;;
49578;SDS011;35483;50.828;3.228;2024-01-07T11:21:00;21.00;;;17.05;;
49578;SDS011;35483;50.828;3.228;2024-01-07T11:23:33;22.20;;;18.10;;
49578;SDS011;35483;50.828;3.228;2024-01-07T11:26:02;18.02;;;14.95;;
49578;SDS011;35483;50.828;3.228;2024-01-07T11:28:45;22.75;;;18.33;;
49578;SDS011;35483;50.828;3.228;2024-01-07T11:31:21;20.55;;;16.95;;
49578;SDS011;35483;50.828;3.228;2024-01-07T11:34:07;20.35;;;17.67;;
49578;SDS011;35483;50.828;3.228;2024-01-07T11:36:37;19.83;;;17.10;;
49578;SDS011;35483;50.828;3.228;2024-01-07T11:39:04;19.40;;;17.40;;
49578;SDS011;35483;50.828;3.228;2024-01-07T11:41:33;20.23;;;17.88;;
49578;SDS011;35483;50.828;3.228;2024-01-07T11:44:00;19.88;;;17.27;;
49578;SDS011;35483;50.828;3.228;2024-01-07T11:46:27;20.58;;;18.35;;
49578;SDS011;35483;50.828;3.228;2024-01-07T11:48:56;21.15;;;17.42;;
49578;SDS011;35483;50.828;3.228;2024-01-07T11:51:29;19.38;;;17.15;;
49578;SDS011;35483;50.828;3.228;2024-01-07T11:53:58;19.85;;;16.45;;
49578;SDS011;35483;50.828;3.228;2024-01-07T11:56:25;21.52;;;17.33;;
49578;SDS011;35483;50.828;3.228;2024-01-07T11:58:53;19.05;;;17.02;;
49578;SDS011;35483;50.828;3.228;2024-01-07T12:01:21;19.90;;;16.65;;
49578;SDS011;35483;50.828;3.228;2024-01-07T12:03:47;17.63;;;15.05;;
49578;SDS011;35483;50.828;3.228;2024-01-07T12:06:13;17.35;;;15.50;;
49578;SDS011;35483;50.828;3.228;2024-01-07T12:08:43;18.67;;;16.02;;
49578;SDS011;35483;50.828;3.228;2024-01-07T12:11:13;18.60;;;16.60;;
49578;SDS011;35483;50.828;3.228;2024-01-07T12:13:39;19.75;;;16.15;;
49578;SDS011;35483;50.828;3.228;2024-01-07T12:16:06;20.60;;;17.48;;
49578;SDS011;35483;50.828;3.228;2024-01-07T12:18:34;19.52;;;17.10;;
49578;SDS011;35483;50.828;3.228;2024-01-07T12:21:02;19.48;;;17.48;;
49578;SDS011;35483;50.828;3.228;2024-01-07T12:23:27;21.10;;;17.60;;
49578;SDS011;35483;50.828;3.228;2024-01-07T12:25:54;19.60;;;16.75;;
49578;SDS011;35483;50.828;3.228;2024-01-07T12:28:23;20.15;;;17.58;;
49578;SDS011;35483;50.828;3.228;2024-01-07T12:30:49;21.40;;;17.98;;
49578;SDS011;35483;50.828;3.228;2024-01-07T12:33:16;18.40;;;16.00;;
49578;SDS011;35483;50.828;3.228;2024-01-07T12:35:45;18.73;;;16.05;;
49578;SDS011;35483;50.828;3.228;2024-01-07T12:38:12;18.83;;;15.65;;
49578;SDS011;35483;50.828;3.228;2024-01-07T12:40:39;18.75;;;16.10;;
49578;SDS011;35483;50.828;3.228;2024-01-07T12:43:05;19.15;;;15.90;;
49578;SDS011;35483;50.828;3.228;2024-01-07T12:45:33;19.98;;;17.30;;
49578;SDS011;35483;50.828;3.228;2024-01-07T12:47:59;19.55;;;16.15;;
49578;SDS011;35483;50.828;3.228;2024-01-07T12:50:27;18.55;;;15.85;;
49578;SDS011;35483;50.828;3.228;2024-01-07T12:52:55;18.10;;;16.15;;
49578;SDS011;35483;50.828;3.228;2024-01-07T12:55:21;21.30;;;18.52;;
49578;SDS011;35483;50.828;3.228;2024-01-07T12:57:48;19.48;;;17.48;;
49578;SDS011;35483;50.828;3.228;2024-01-07T13:00:14;20.92;;;18.73;;
49578;SDS011;35483;50.828;3.228;2024-01-07T13:02:44;21.85;;;18.40;;
49578;SDS011;35483;50.828;3.228;2024-01-07T13:05:09;22.13;;;18.00;;
49578;SDS011;35483;50.828;3.228;2024-01-07T13:07:35;19.40;;;17.20;;
49578;SDS011;35483;50.828;3.228;2024-01-07T13:10:01;20.02;;;16.02;;
49578;SDS011;35483;50.828;3.228;2024-01-07T13:12:28;19.17;;;17.17;;
49578;SDS011;35483;50.828;3.228;2024-01-07T13:14:54;17.70;;;15.80;;
49578;SDS011;35483;50.828;3.228;2024-01-07T13:17:21;18.20;;;15.63;;
49578;SDS011;35483;50.828;3.228;2024-01-07T13:19:48;20.13;;;16.67;;
49578;SDS011;35483;50.828;3.228;2024-01-07T13:22:13;20.25;;;17.42;;
49578;SDS011;35483;50.828;3.228;2024-01-07T13:24:40;19.70;;;16.88;;
49578;SDS011;35483;50.828;3.228;2024-01-07T13:27:06;21.35;;;17.73;;
49578;SDS011;35483;50.828;3.228;2024-01-07T13:29:33;20.02;;;17.05;;
49578;SDS011;35483;50.828;3.228;2024-01-07T13:32:00;19.92;;;17.55;;
49578;SDS011;35483;50.828;3.228;2024-01-07T13:34:26;19.15;;;17.10;;
49578;SDS011;35483;50.828;3.228;2024-01-07T13:36:52;19.15;;;17.13;;
49578;SDS011;35483;50.828;3.228;2024-01-07T13:39:19;20.52;;;17.73;;
49578;SDS011;35483;50.828;3.228;2024-01-07T13:41:46;18.88;;;16.95;;
49578;SDS011;35483;50.828;3.228;2024-01-07T13:44:12;20.08;;;17.15;;
49578;SDS011;35483;50.828;3.228;2024-01-07T13:46:51;20.13;;;17.13;;
49578;SDS011;35483;50.828;3.228;2024-01-07T13:49:17;20.48;;;16.75;;
49578;SDS011;35483;50.828;3.228;2024-01-07T13:51:43;20.08;;;17.90;;
49578;SDS011;35483;50.828;3.228;2024-01-07T13:54:09;21.20;;;17.90;;
49578;SDS011;35483;50.828;3.228;2024-01-07T13:56:38;19.48;;;16.88;;
49578;SDS011;35483;50.828;3.228;2024-01-07T13:59:07;19.25;;;16.42;;
49578;SDS011;35483;50.828;3.228;2024-01-07T14:01:33;19.90;;;16.55;;
49578;SDS011;35483;50.828;3.228;2024-01-07T14:03:59;21.02;;;18.13;;
49578;SDS011;35483;50.828;3.228;2024-01-07T14:06:26;19.85;;;17.67;;
49578;SDS011;35483;50.828;3.228;2024-01-07T14:08:52;19.52;;;17.17;;
49578;SDS011;35483;50.828;3.228;2024-01-07T14:11:18;19.92;;;16.73;;
49578;SDS011;35483;50.828;3.228;2024-01-07T14:13:46;17.15;;;15.35;;
49578;SDS011;35483;50.828;3.228;2024-01-07T14:16:12;20.05;;;15.93;;
49578;SDS011;35483;50.828;3.228;2024-01-07T14:18:38;18.05;;;15.98;;
49578;SDS011;35483;50.828;3.228;2024-01-07T14:21:04;18.55;;;16.65;;
49578;SDS011;35483;50.828;3.228;2024-01-07T14:23:31;17.27;;;15.48;;
49578;SDS011;35483;50.828;3.228;2024-01-07T14:25:59;18.50;;;16.50;;
49578;SDS011;35483;50.828;3.228;2024-01-07T14:28:25;19.02;;;17.02;;